LCRA METAR and TAF | Updated Today

LCRA METAR

RAF Akrotiri

Observation time: 32 min. ago

LCRA 010820Z 07010KT CAVOK 31/21 Q1016 NOSIG

Need help? Read our tutorial on how to read METARs or read the parsed version below.

RAF Akrotiri (LCRA) METAR

  • Weather conditions on Sat, 01 Oct 2022 08:20:00 +0000 (32 min. ago):
  • Present conditions: Dry
  • Clouds: Clear skies
  • Visibility: Greater than 10 km
  • Wind: 70 degrees at 10 knots
  • Temperature: 31 celsius
  • Dew point: 21 celsius
  • Pressure: 1016 millibars
  • Remarks: None


Useful to know...

LCRA TAF

RAF Akrotiri

TAF LCRA 010434Z 0106/0124 06004KT CAVOK BECMG 0111/0114 26008KT TEMPO 0123/0124 05005KT
Observation time: 4:18 hr. ago
Need help? Read our tutorial on how to read TAFs or read the parsed version below.

Parsed version of TAF for RAF Akrotiri (LCRA)

  • From 01 October at 06:00 UTC, to day 01 of the month at 24:00 UTC
  • Visibility: Greater than 10 km
  • Wind: 60 degrees at 4
  • Expected to arise soon, from 01 October at 11:00 UTC, to day 01 of the month at 14:00 UTC
  • Wind: 260 degrees at 8
  • Expected to arise temporarily, from 01 October at 23:00 UTC, to day 01 of the month at 24:00 UTC
  • Wind: 50 degrees at 5